sensor_id;sensor_type;location;lat;lon;timestamp;pressure;altitude;pressure_sealevel;temperature;humidity
37066;BME280;22981;43.080;25.550;2023-03-03T00:00:51;99900.05;;;5.36;79.69
37066;BME280;22981;43.080;25.550;2023-03-03T00:03:20;99903.53;;;5.36;79.67
37066;BME280;22981;43.080;25.550;2023-03-03T00:05:49;99899.67;;;5.39;79.66
37066;BME280;22981;43.080;25.550;2023-03-03T00:08:18;99897.02;;;5.39;79.64
37066;BME280;22981;43.080;25.550;2023-03-03T00:10:46;99890.25;;;5.36;79.64
37066;BME280;22981;43.080;25.550;2023-03-03T00:13:23;99890.91;;;5.34;79.72
37066;BME280;22981;43.080;25.550;2023-03-03T00:15:47;99887.25;;;5.35;79.70
37066;BME280;22981;43.080;25.550;2023-03-03T00:18:33;99885.09;;;5.35;79.75
37066;BME280;22981;43.080;25.550;2023-03-03T00:20:59;99876.63;;;5.35;79.73
37066;BME280;22981;43.080;25.550;2023-03-03T00:25:58;99871.83;;;5.35;79.78
37066;BME280;22981;43.080;25.550;2023-03-03T00:28:28;99865.53;;;5.36;79.77
37066;BME280;22981;43.080;25.550;2023-03-03T00:30:58;99864.34;;;5.38;79.77
37066;BME280;22981;43.080;25.550;2023-03-03T00:33:29;99861.68;;;5.38;79.75
37066;BME280;22981;43.080;25.550;2023-03-03T00:38:47;99847.77;;;5.36;79.79
37066;BME280;22981;43.080;25.550;2023-03-03T00:41:22;99848.09;;;5.37;79.68
37066;BME280;22981;43.080;25.550;2023-03-03T00:43:49;99849.92;;;5.37;79.68
37066;BME280;22981;43.080;25.550;2023-03-03T00:46:19;99845.12;;;5.36;79.69
37066;BME280;22981;43.080;25.550;2023-03-03T00:48:48;99844.11;;;5.37;79.72
37066;BME280;22981;43.080;25.550;2023-03-03T00:53:51;99836.14;;;5.37;79.74
37066;BME280;22981;43.080;25.550;2023-03-03T00:56:19;99832.00;;;5.35;79.76
37066;BME280;22981;43.080;25.550;2023-03-03T00:58:47;99833.67;;;5.36;79.83
37066;BME280;22981;43.080;25.550;2023-03-03T01:01:16;99828.36;;;5.36;79.85
37066;BME280;22981;43.080;25.550;2023-03-03T01:03:44;99829.82;;;5.38;79.86
37066;BME280;22981;43.080;25.550;2023-03-03T01:06:12;99826.00;;;5.41;79.86
37066;BME280;22981;43.080;25.550;2023-03-03T01:08:40;99823.34;;;5.41;79.85
37066;BME280;22981;43.080;25.550;2023-03-03T01:11:14;99823.84;;;5.40;79.85
37066;BME280;22981;43.080;25.550;2023-03-03T01:13:43;99824.38;;;5.36;79.87
37066;BME280;22981;43.080;25.550;2023-03-03T01:16:11;99813.41;;;5.35;80.02
37066;BME280;22981;43.080;25.550;2023-03-03T01:18:39;99812.44;;;5.36;80.10
37066;BME280;22981;43.080;25.550;2023-03-03T01:21:08;99812.56;;;5.38;80.09
37066;BME280;22981;43.080;25.550;2023-03-03T01:23:36;99810.25;;;5.35;80.07
37066;BME280;22981;43.080;25.550;2023-03-03T01:26:04;99808.61;;;5.34;80.00
37066;BME280;22981;43.080;25.550;2023-03-03T01:28:32;99807.66;;;5.31;80.03
37066;BME280;22981;43.080;25.550;2023-03-03T01:31:02;99808.98;;;5.31;80.11
37066;BME280;22981;43.080;25.550;2023-03-03T01:33:31;99808.30;;;5.33;80.11
37066;BME280;22981;43.080;25.550;2023-03-03T01:35:59;99800.65;;;5.34;80.07
37066;BME280;22981;43.080;25.550;2023-03-03T01:38:27;99799.83;;;5.34;80.08
37066;BME280;22981;43.080;25.550;2023-03-03T01:40:56;99797.67;;;5.33;80.13
37066;BME280;22981;43.080;25.550;2023-03-03T01:43:28;99794.01;;;5.34;80.08
37066;BME280;22981;43.080;25.550;2023-03-03T01:48:41;99795.20;;;5.32;79.99
37066;BME280;22981;43.080;25.550;2023-03-03T01:51:17;99800.67;;;5.30;79.96
37066;BME280;22981;43.080;25.550;2023-03-03T01:53:47;99795.08;;;5.25;79.86
37066;BME280;22981;43.080;25.550;2023-03-03T01:56:14;99799.27;;;5.19;79.91
37066;BME280;22981;43.080;25.550;2023-03-03T01:58:44;99796.96;;;5.16;80.04
37066;BME280;22981;43.080;25.550;2023-03-03T02:01:14;99796.33;;;5.14;80.14
37066;BME280;22981;43.080;25.550;2023-03-03T02:03:43;99793.48;;;5.16;80.15
37066;BME280;22981;43.080;25.550;2023-03-03T02:06:13;99786.34;;;5.16;80.06
37066;BME280;22981;43.080;25.550;2023-03-03T02:09:01;99790.99;;;5.18;80.02
37066;BME280;22981;43.080;25.550;2023-03-03T02:11:30;99787.36;;;5.15;79.96
37066;BME280;22981;43.080;25.550;2023-03-03T02:13:58;99786.19;;;5.14;79.89
37066;BME280;22981;43.080;25.550;2023-03-03T02:16:26;99786.19;;;5.14;79.91
37066;BME280;22981;43.080;25.550;2023-03-03T02:18:54;99780.41;;;5.14;79.91
37066;BME280;22981;43.080;25.550;2023-03-03T02:21:23;99789.19;;;5.15;79.89
37066;BME280;22981;43.080;25.550;2023-03-03T02:26:35;99788.52;;;5.13;79.89
37066;BME280;22981;43.080;25.550;2023-03-03T02:29:03;99790.36;;;5.12;79.83
37066;BME280;22981;43.080;25.550;2023-03-03T02:31:31;99792.38;;;5.10;79.81
37066;BME280;22981;43.080;25.550;2023-03-03T02:33:59;99787.57;;;5.10;79.82
37066;BME280;22981;43.080;25.550;2023-03-03T02:36:35;99788.05;;;5.09;79.87
37066;BME280;22981;43.080;25.550;2023-03-03T02:39:14;99783.75;;;5.08;79.83
37066;BME280;22981;43.080;25.550;2023-03-03T02:44:24;99787.91;;;5.07;79.71
37066;BME280;22981;43.080;25.550;2023-03-03T02:46:54;99788.57;;;5.05;79.69
37066;BME280;22981;43.080;25.550;2023-03-03T02:49:25;99789.77;;;5.02;79.74
37066;BME280;22981;43.080;25.550;2023-03-03T02:51:53;99792.45;;;4.98;79.77
37066;BME280;22981;43.080;25.550;2023-03-03T02:54:22;99788.63;;;4.96;79.86
37066;BME280;22981;43.080;25.550;2023-03-03T02:56:50;99797.25;;;4.98;79.87
37066;BME280;22981;43.080;25.550;2023-03-03T02:59:18;99796.75;;;4.99;79.83
37066;BME280;22981;43.080;25.550;2023-03-03T03:01:46;99796.75;;;4.99;79.81
37066;BME280;22981;43.080;25.550;2023-03-03T03:04:16;99797.91;;;4.96;79.82
37066;BME280;22981;43.080;25.550;2023-03-03T03:06:45;99796.93;;;4.97;79.86
37066;BME280;22981;43.080;25.550;2023-03-03T03:09:13;99796.75;;;4.99;79.81
37066;BME280;22981;43.080;25.550;2023-03-03T03:11:41;99800.38;;;5.02;79.73
37066;BME280;22981;43.080;25.550;2023-03-03T03:14:10;99792.23;;;5.03;79.68
37066;BME280;22981;43.080;25.550;2023-03-03T03:16:38;99795.55;;;5.06;79.64
37066;BME280;22981;43.080;25.550;2023-03-03T03:19:07;99787.75;;;5.04;79.59
37066;BME280;22981;43.080;25.550;2023-03-03T03:21:35;99792.42;;;5.02;79.63
37066;BME280;22981;43.080;25.550;2023-03-03T03:24:02;99790.09;;;5.03;79.67
37066;BME280;22981;43.080;25.550;2023-03-03T03:26:30;99793.88;;;5.05;79.65
37066;BME280;22981;43.080;25.550;2023-03-03T03:28:57;99788.42;;;5.06;79.58
37066;BME280;22981;43.080;25.550;2023-03-03T03:31:25;99788.57;;;5.05;79.53
37066;BME280;22981;43.080;25.550;2023-03-03T03:33:52;99787.12;;;5.02;79.56
37066;BME280;22981;43.080;25.550;2023-03-03T03:36:20;99789.29;;;4.98;79.62
37066;BME280;22981;43.080;25.550;2023-03-03T03:38:48;99785.84;;;4.94;79.74
37066;BME280;22981;43.080;25.550;2023-03-03T03:41:15;99782.36;;;4.93;79.84
37066;BME280;22981;43.080;25.550;2023-03-03T03:43:43;99785.97;;;4.96;79.86
37066;BME280;22981;43.080;25.550;2023-03-03T03:46:10;99781.81;;;5.02;79.88
37066;BME280;22981;43.080;25.550;2023-03-03T03:48:38;99781.12;;;5.04;79.83
37066;BME280;22981;43.080;25.550;2023-03-03T03:51:05;99776.29;;;5.08;79.75
37066;BME280;22981;43.080;25.550;2023-03-03T03:53:33;99780.59;;;5.09;79.73
37066;BME280;22981;43.080;25.550;2023-03-03T03:56:01;99772.97;;;5.10;79.76
37066;BME280;22981;43.080;25.550;2023-03-03T03:58:28;99778.44;;;5.08;79.75
37066;BME280;22981;43.080;25.550;2023-03-03T04:01:01;99770.00;;;5.05;79.78
37066;BME280;22981;43.080;25.550;2023-03-03T04:03:28;99767.34;;;5.05;79.88
37066;BME280;22981;43.080;25.550;2023-03-03T04:05:55;99761.06;;;5.06;79.92
37066;BME280;22981;43.080;25.550;2023-03-03T04:08:23;99759.23;;;5.06;79.81
37066;BME280;22981;43.080;25.550;2023-03-03T04:10:50;99759.36;;;5.09;79.77
37066;BME280;22981;43.080;25.550;2023-03-03T04:13:18;99756.07;;;5.07;79.73
37066;BME280;22981;43.080;25.550;2023-03-03T04:15:45;99763.55;;;5.03;79.81
37066;BME280;22981;43.080;25.550;2023-03-03T04:18:13;99758.77;;;4.98;79.89
37066;BME280;22981;43.080;25.550;2023-03-03T04:20:40;99753.81;;;4.95;80.03
37066;BME280;22981;43.080;25.550;2023-03-03T04:23:08;99754.63;;;4.96;80.10
37066;BME280;22981;43.080;25.550;2023-03-03T04:25:36;99752.17;;;4.94;80.12
37066;BME280;22981;43.080;25.550;2023-03-03T04:28:03;99751.85;;;4.93;80.18
37066;BME280;22981;43.080;25.550;2023-03-03T04:30:31;99749.86;;;4.91;80.17
37066;BME280;22981;43.080;25.550;2023-03-03T04:32:59;99756.17;;;4.90;80.30
37066;BME280;22981;43.080;25.550;2023-03-03T04:35:26;99755.03;;;4.89;80.41
37066;BME280;22981;43.080;25.550;2023-03-03T04:37:54;99757.50;;;4.90;80.45
37066;BME280;22981;43.080;25.550;2023-03-03T04:40:22;99750.53;;;4.93;80.46
37066;BME280;22981;43.080;25.550;2023-03-03T04:42:49;99761.11;;;4.97;80.39
37066;BME280;22981;43.080;25.550;2023-03-03T04:45:17;99754.92;;;5.01;80.31
37066;BME280;22981;43.080;25.550;2023-03-03T04:47:45;99761.72;;;5.03;80.24
37066;BME280;22981;43.080;25.550;2023-03-03T04:50:12;99750.92;;;5.05;80.25
37066;BME280;22981;43.080;25.550;2023-03-03T04:52:40;99755.06;;;5.08;80.25
37066;BME280;22981;43.080;25.550;2023-03-03T04:55:08;99754.40;;;5.10;80.20
37066;BME280;22981;43.080;25.550;2023-03-03T04:57:36;99760.84;;;5.11;80.11
37066;BME280;22981;43.080;25.550;2023-03-03T05:00:04;99765.33;;;5.11;80.07
37066;BME280;22981;43.080;25.550;2023-03-03T05:02:32;99768.62;;;5.13;80.09
37066;BME280;22981;43.080;25.550;2023-03-03T05:05:00;99770.77;;;5.13;80.04
37066;BME280;22981;43.080;25.550;2023-03-03T05:07:27;99769.95;;;5.13;80.06
37066;BME280;22981;43.080;25.550;2023-03-03T05:09:55;99773.30;;;5.11;80.09
37066;BME280;22981;43.080;25.550;2023-03-03T05:12:22;99775.28;;;5.09;80.18
37066;BME280;22981;43.080;25.550;2023-03-03T05:14:50;99781.78;;;5.06;80.27
37066;BME280;22981;43.080;25.550;2023-03-03T05:17:18;99786.61;;;5.02;80.34
37066;BME280;22981;43.080;25.550;2023-03-03T05:19:45;99783.16;;;4.98;80.50
37066;BME280;22981;43.080;25.550;2023-03-03T05:22:13;99783.00;;;4.95;80.67
37066;BME280;22981;43.080;25.550;2023-03-03T05:24:40;99786.17;;;4.91;80.80
37066;BME280;22981;43.080;25.550;2023-03-03T05:27:09;99781.22;;;4.88;80.97
37066;BME280;22981;43.080;25.550;2023-03-03T05:29:37;99785.06;;;4.85;81.10
37066;BME280;22981;43.080;25.550;2023-03-03T05:32:04;99785.56;;;4.85;81.24
37066;BME280;22981;43.080;25.550;2023-03-03T05:34:32;99777.25;;;4.84;81.28
37066;BME280;22981;43.080;25.550;2023-03-03T05:37:00;99779.89;;;4.88;81.28
37066;BME280;22981;43.080;25.550;2023-03-03T05:39:29;99783.20;;;4.90;81.23
37066;BME280;22981;43.080;25.550;2023-03-03T05:41:56;99787.32;;;4.92;81.12
37066;BME280;22981;43.080;25.550;2023-03-03T05:44:26;99781.70;;;4.91;81.02
37066;BME280;22981;43.080;25.550;2023-03-03T05:46:53;99782.52;;;4.92;80.99
37066;BME280;22981;43.080;25.550;2023-03-03T05:49:23;99785.67;;;4.91;81.00
37066;BME280;22981;43.080;25.550;2023-03-03T05:51:50;99781.06;;;4.89;81.01
37066;BME280;22981;43.080;25.550;2023-03-03T05:54:18;99781.40;;;4.86;81.05
37066;BME280;22981;43.080;25.550;2023-03-03T05:56:45;99787.84;;;4.88;81.08
37066;BME280;22981;43.080;25.550;2023-03-03T05:59:13;99791.69;;;4.85;81.12
37066;BME280;22981;43.080;25.550;2023-03-03T06:01:40;99793.04;;;4.81;81.17
37066;BME280;22981;43.080;25.550;2023-03-03T06:04:08;99797.52;;;4.81;81.27
37066;BME280;22981;43.080;25.550;2023-03-03T06:06:35;99792.38;;;4.79;81.24
37066;BME280;22981;43.080;25.550;2023-03-03T06:09:03;99798.03;;;4.80;81.33
37066;BME280;22981;43.080;25.550;2023-03-03T06:11:31;99800.33;;;4.79;81.37
37066;BME280;22981;43.080;25.550;2023-03-03T06:13:59;99800.20;;;4.76;81.47
37066;BME280;22981;43.080;25.550;2023-03-03T06:16:26;99801.67;;;4.75;81.54
37066;BME280;22981;43.080;25.550;2023-03-03T06:18:54;99805.34;;;4.74;81.55
37066;BME280;22981;43.080;25.550;2023-03-03T06:21:22;99804.17;;;4.76;81.53
37066;BME280;22981;43.080;25.550;2023-03-03T06:23:49;99803.86;;;4.75;81.59
37066;BME280;22981;43.080;25.550;2023-03-03T06:26:17;99800.20;;;4.76;81.66
37066;BME280;22981;43.080;25.550;2023-03-03T06:28:44;99799.69;;;4.77;81.84
37066;BME280;22981;43.080;25.550;2023-03-03T06:31:12;99802.83;;;4.81;81.90
37066;BME280;22981;43.080;25.550;2023-03-03T06:33:39;99797.16;;;4.84;81.85
37066;BME280;22981;43.080;25.550;2023-03-03T06:36:08;99799.48;;;4.83;81.79
37066;BME280;22981;43.080;25.550;2023-03-03T06:38:36;99800.01;;;4.78;81.86
37066;BME280;22981;43.080;25.550;2023-03-03T06:41:04;99807.48;;;4.74;81.98
37066;BME280;22981;43.080;25.550;2023-03-03T06:43:34;99805.02;;;4.73;82.06
37066;BME280;22981;43.080;25.550;2023-03-03T06:46:03;99813.29;;;4.74;82.18
37066;BME280;22981;43.080;25.550;2023-03-03T06:48:31;99813.45;;;4.76;82.19
37066;BME280;22981;43.080;25.550;2023-03-03T06:51:00;99808.79;;;4.78;82.22
37066;BME280;22981;43.080;25.550;2023-03-03T06:53:30;99807.31;;;4.80;82.14
37066;BME280;22981;43.080;25.550;2023-03-03T06:55:59;99806.12;;;4.83;82.10
37066;BME280;22981;43.080;25.550;2023-03-03T06:58:28;99802.30;;;4.85;82.11
37066;BME280;22981;43.080;25.550;2023-03-03T07:00:57;99801.61;;;4.87;82.13
37066;BME280;22981;43.080;25.550;2023-03-03T07:03:27;99803.23;;;4.92;82.13
37066;BME280;22981;43.080;25.550;2023-03-03T07:05:55;99797.09;;;4.96;82.07
37066;BME280;22981;43.080;25.550;2023-03-03T07:08:24;99796.58;;;4.96;82.05
37066;BME280;22981;43.080;25.550;2023-03-03T07:10:52;99791.62;;;4.97;82.08
37066;BME280;22981;43.080;25.550;2023-03-03T07:13:25;99800.22;;;4.99;82.09
37066;BME280;22981;43.080;25.550;2023-03-03T07:15:55;99799.91;;;4.98;82.04
37066;BME280;22981;43.080;25.550;2023-03-03T07:18:34;99798.39;;;5.00;81.96
37066;BME280;22981;43.080;25.550;2023-03-03T07:21:20;99798.07;;;4.99;81.97
37066;BME280;22981;43.080;25.550;2023-03-03T07:23:52;99792.77;;;4.99;81.95
37066;BME280;22981;43.080;25.550;2023-03-03T07:26:23;99787.27;;;5.00;82.00
37066;BME280;22981;43.080;25.550;2023-03-03T07:29:00;99784.94;;;5.06;82.04
37066;BME280;22981;43.080;25.550;2023-03-03T07:34:13;99785.87;;;5.13;82.04
37066;BME280;22981;43.080;25.550;2023-03-03T07:36:35;99779.11;;;5.10;82.01
37066;BME280;22981;43.080;25.550;2023-03-03T07:39:15;99781.57;;;5.12;82.16
37066;BME280;22981;43.080;25.550;2023-03-03T07:41:34;99776.40;;;5.18;82.18
37066;BME280;22981;43.080;25.550;2023-03-03T07:44:12;99772.55;;;5.21;81.97
37066;BME280;22981;43.080;25.550;2023-03-03T07:46:43;99770.08;;;5.19;82.01
37066;BME280;22981;43.080;25.550;2023-03-03T07:49:34;99774.03;;;5.23;82.06
37066;BME280;22981;43.080;25.550;2023-03-03T07:54:54;99764.77;;;5.19;82.03
37066;BME280;22981;43.080;25.550;2023-03-03T07:57:34;99766.73;;;5.21;82.00
37066;BME280;22981;43.080;25.550;2023-03-03T08:05:28;99764.84;;;5.30;82.06
37066;BME280;22981;43.080;25.550;2023-03-03T08:08:09;99755.83;;;5.35;81.98
37066;BME280;22981;43.080;25.550;2023-03-03T08:10:35;99764.27;;;5.39;81.87
37066;BME280;22981;43.080;25.550;2023-03-03T08:13:17;99761.42;;;5.44;81.85
37066;BME280;22981;43.080;25.550;2023-03-03T08:16:03;99756.90;;;5.49;81.77
37066;BME280;22981;43.080;25.550;2023-03-03T08:21:14;99758.44;;;5.62;81.44
37066;BME280;22981;43.080;25.550;2023-03-03T08:23:43;99753.28;;;5.61;81.35
37066;BME280;22981;43.080;25.550;2023-03-03T08:26:11;99756.83;;;5.57;81.32
37066;BME280;22981;43.080;25.550;2023-03-03T08:28:39;99754.99;;;5.58;81.38
37066;BME280;22981;43.080;25.550;2023-03-03T08:31:06;99749.17;;;5.58;81.47
37066;BME280;22981;43.080;25.550;2023-03-03T08:33:34;99747.15;;;5.60;81.50
37066;BME280;22981;43.080;25.550;2023-03-03T08:36:01;99749.80;;;5.60;81.45
37066;BME280;22981;43.080;25.550;2023-03-03T08:38:29;99748.48;;;5.60;81.43
37066;BME280;22981;43.080;25.550;2023-03-03T08:40:57;99748.79;;;5.65;81.48
37066;BME280;22981;43.080;25.550;2023-03-03T08:43:24;99748.91;;;5.68;81.34
37066;BME280;22981;43.080;25.550;2023-03-03T08:45:55;99746.61;;;5.65;81.09
37066;BME280;22981;43.080;25.550;2023-03-03T08:48:23;99742.81;;;5.63;81.08
37066;BME280;22981;43.080;25.550;2023-03-03T08:50:52;99742.34;;;5.60;81.22
37066;BME280;22981;43.080;25.550;2023-03-03T08:53:20;99742.50;;;5.62;81.36
37066;BME280;22981;43.080;25.550;2023-03-03T08:55:48;99730.62;;;5.69;81.41
37066;BME280;22981;43.080;25.550;2023-03-03T08:58:17;99731.88;;;5.77;81.36
37066;BME280;22981;43.080;25.550;2023-03-03T09:00:45;99734.45;;;5.85;81.22
37066;BME280;22981;43.080;25.550;2023-03-03T09:03:13;99733.27;;;5.92;81.06
37066;BME280;22981;43.080;25.550;2023-03-03T09:05:40;99731.43;;;5.92;80.83
37066;BME280;22981;43.080;25.550;2023-03-03T09:08:08;99730.92;;;5.93;80.76
37066;BME280;22981;43.080;25.550;2023-03-03T09:10:36;99730.73;;;5.94;80.60
37066;BME280;22981;43.080;25.550;2023-03-03T09:13:15;99726.58;;;5.96;80.45
37066;BME280;22981;43.080;25.550;2023-03-03T09:15:43;99726.73;;;5.94;80.40
37066;BME280;22981;43.080;25.550;2023-03-03T09:20:54;99725.05;;;5.97;80.35
37066;BME280;22981;43.080;25.550;2023-03-03T09:23:38;99724.70;;;6.00;80.21
37066;BME280;22981;43.080;25.550;2023-03-03T09:26:26;99716.07;;;5.98;80.12
37066;BME280;22981;43.080;25.550;2023-03-03T09:29:05;99719.04;;;5.99;80.12
37066;BME280;22981;43.080;25.550;2023-03-03T09:31:41;99716.68;;;6.05;80.03
37066;BME280;22981;43.080;25.550;2023-03-03T09:34:23;99710.81;;;6.09;79.92
37066;BME280;22981;43.080;25.550;2023-03-03T09:36:52;99706.77;;;6.13;79.82
37066;BME280;22981;43.080;25.550;2023-03-03T09:39:23;99704.58;;;6.17;79.68
37066;BME280;22981;43.080;25.550;2023-03-03T09:42:20;99712.16;;;6.20;79.61
37066;BME280;22981;43.080;25.550;2023-03-03T09:45:07;99706.63;;;6.25;79.52
37066;BME280;22981;43.080;25.550;2023-03-03T09:50:35;99704.17;;;6.35;79.29
37066;BME280;22981;43.080;25.550;2023-03-03T09:56:14;99700.95;;;6.39;78.96
37066;BME280;22981;43.080;25.550;2023-03-03T10:07:18;99700.43;;;6.65;78.52
37066;BME280;22981;43.080;25.550;2023-03-03T10:10:15;99697.66;;;6.73;78.32
37066;BME280;22981;43.080;25.550;2023-03-03T10:13:44;99693.66;;;6.73;78.13
37066;BME280;22981;43.080;25.550;2023-03-03T10:15:24;99690.34;;;6.71;78.17
37066;BME280;22981;43.080;25.550;2023-03-03T10:17:57;99694.40;;;6.67;78.14
37066;BME280;22981;43.080;25.550;2023-03-03T10:23:20;99682.06;;;6.60;78.13
37066;BME280;22981;43.080;25.550;2023-03-03T10:26:16;99686.81;;;6.64;78.09
37066;BME280;22981;43.080;25.550;2023-03-03T10:34:41;99662.80;;;6.79;77.56
37066;BME280;22981;43.080;25.550;2023-03-03T10:37:26;99656.16;;;6.90;77.45
37066;BME280;22981;43.080;25.550;2023-03-03T10:48:09;99643.54;;;7.26;76.94
37066;BME280;22981;43.080;25.550;2023-03-03T10:50:44;99642.81;;;7.39;76.80
37066;BME280;22981;43.080;25.550;2023-03-03T10:56:12;99630.32;;;7.57;76.48
37066;BME280;22981;43.080;25.550;2023-03-03T10:58:45;99629.34;;;7.65;76.31
37066;BME280;22981;43.080;25.550;2023-03-03T11:01:20;99624.14;;;7.67;76.05
37066;BME280;22981;43.080;25.550;2023-03-03T11:12:05;99608.59;;;7.71;75.82
37066;BME280;22981;43.080;25.550;2023-03-03T11:14:37;99611.34;;;7.67;75.77
37066;BME280;22981;43.080;25.550;2023-03-03T11:22:46;99605.80;;;7.68;75.85
37066;BME280;22981;43.080;25.550;2023-03-03T11:25:23;99606.49;;;7.66;75.74
37066;BME280;22981;43.080;25.550;2023-03-03T11:33:31;99606.68;;;7.58;75.49
37066;BME280;22981;43.080;25.550;2023-03-03T11:41:03;99587.97;;;7.69;75.43
37066;BME280;22981;43.080;25.550;2023-03-03T11:43:41;99581.22;;;7.73;75.32
37066;BME280;22981;43.080;25.550;2023-03-03T11:46:21;99579.50;;;7.76;75.28
37066;BME280;22981;43.080;25.550;2023-03-03T11:51:40;99578.09;;;7.80;75.11
37066;BME280;22981;43.080;25.550;2023-03-03T11:54:18;99574.19;;;7.83;75.11
37066;BME280;22981;43.080;25.550;2023-03-03T11:56:48;99579.34;;;7.84;75.04
37066;BME280;22981;43.080;25.550;2023-03-03T11:59:43;99575.21;;;7.82;74.99
37066;BME280;22981;43.080;25.550;2023-03-03T12:16:06;99573.78;;;7.62;75.26
37066;BME280;22981;43.080;25.550;2023-03-03T12:18:45;99575.40;;;7.56;75.25
37066;BME280;22981;43.080;25.550;2023-03-03T12:24:32;99584.78;;;7.45;75.50
37066;BME280;22981;43.080;25.550;2023-03-03T12:30:13;99590.44;;;7.36;75.55
37066;BME280;22981;43.080;25.550;2023-03-03T12:35:35;99584.78;;;7.28;75.69
37066;BME280;22981;43.080;25.550;2023-03-03T12:40:50;99591.61;;;7.26;75.76
37066;BME280;22981;43.080;25.550;2023-03-03T12:43:33;99590.28;;;7.26;75.86
37066;BME280;22981;43.080;25.550;2023-03-03T12:46:31;99592.95;;;7.26;75.93
37066;BME280;22981;43.080;25.550;2023-03-03T12:48:44;99593.67;;;7.24;75.91
37066;BME280;22981;43.080;25.550;2023-03-03T12:57:05;99596.65;;;7.15;75.98
37066;BME280;22981;43.080;25.550;2023-03-03T13:05:30;99600.48;;;7.06;76.18
37066;BME280;22981;43.080;25.550;2023-03-03T13:10:56;99597.20;;;7.03;76.27
37066;BME280;22981;43.080;25.550;2023-03-03T13:16:19;99594.09;;;7.00;76.44
37066;BME280;22981;43.080;25.550;2023-03-03T13:18:48;99593.27;;;6.99;76.45
37066;BME280;22981;43.080;25.550;2023-03-03T13:26:51;99605.70;;;6.92;76.79
37066;BME280;22981;43.080;25.550;2023-03-03T13:32:15;99602.36;;;6.94;77.01
37066;BME280;22981;43.080;25.550;2023-03-03T13:37:44;99597.09;;;6.90;77.23
37066;BME280;22981;43.080;25.550;2023-03-03T13:40:16;99595.53;;;6.85;77.30
37066;BME280;22981;43.080;25.550;2023-03-03T13:42:46;99600.65;;;6.87;77.49
37066;BME280;22981;43.080;25.550;2023-03-03T13:45:22;99588.53;;;6.84;77.68
37066;BME280;22981;43.080;25.550;2023-03-03T13:47:52;99590.58;;;6.82;77.87
37066;BME280;22981;43.080;25.550;2023-03-03T13:50:35;99585.43;;;6.81;78.03
37066;BME280;22981;43.080;25.550;2023-03-03T13:55:48;99587.98;;;6.78;78.39
37066;BME280;22981;43.080;25.550;2023-03-03T14:01:27;99590.51;;;6.75;78.74
37066;BME280;22981;43.080;25.550;2023-03-03T14:04:03;99590.92;;;6.72;78.83
37066;BME280;22981;43.080;25.550;2023-03-03T14:06:30;99594.06;;;6.72;78.95
37066;BME280;22981;43.080;25.550;2023-03-03T14:09:13;99596.92;;;6.70;79.03
37066;BME280;22981;43.080;25.550;2023-03-03T14:11:43;99593.20;;;6.65;79.13
37066;BME280;22981;43.080;25.550;2023-03-03T14:19:58;99591.34;;;6.55;79.48
37066;BME280;22981;43.080;25.550;2023-03-03T14:22:52;99593.19;;;6.54;79.57
37066;BME280;22981;43.080;25.550;2023-03-03T14:25:20;99594.83;;;6.55;79.67
37066;BME280;22981;43.080;25.550;2023-03-03T14:30:31;99589.20;;;6.54;79.87
37066;BME280;22981;43.080;25.550;2023-03-03T14:35:49;99585.47;;;6.48;80.04
37066;BME280;22981;43.080;25.550;2023-03-03T14:38:18;99582.16;;;6.46;80.16
37066;BME280;22981;43.080;25.550;2023-03-03T14:40:47;99581.03;;;6.45;80.23
37066;BME280;22981;43.080;25.550;2023-03-03T14:43:23;99581.23;;;6.43;80.37
37066;BME280;22981;43.080;25.550;2023-03-03T14:45:52;99586.20;;;6.42;80.51
37066;BME280;22981;43.080;25.550;2023-03-03T14:48:22;99584.06;;;6.42;80.65
37066;BME280;22981;43.080;25.550;2023-03-03T14:50:53;99586.61;;;6.39;80.72
37066;BME280;22981;43.080;25.550;2023-03-03T14:53:34;99582.68;;;6.35;80.82
37066;BME280;22981;43.080;25.550;2023-03-03T14:56:24;99582.23;;;6.32;80.95
37066;BME280;22981;43.080;25.550;2023-03-03T14:59:15;99578.75;;;6.31;80.99
37066;BME280;22981;43.080;25.550;2023-03-03T15:01:37;99580.77;;;6.29;81.04
37066;BME280;22981;43.080;25.550;2023-03-03T15:04:22;99580.66;;;6.26;81.14
37066;BME280;22981;43.080;25.550;2023-03-03T15:06:43;99587.30;;;6.26;81.24
37066;BME280;22981;43.080;25.550;2023-03-03T15:09:32;99590.47;;;6.26;81.30
37066;BME280;22981;43.080;25.550;2023-03-03T15:29:00;99598.72;;;6.16;81.78
37066;BME280;22981;43.080;25.550;2023-03-03T15:31:41;99588.29;;;6.15;81.98
37066;BME280;22981;43.080;25.550;2023-03-03T15:34:30;99594.42;;;6.15;82.09
37066;BME280;22981;43.080;25.550;2023-03-03T15:37:41;99588.94;;;6.17;82.03
37066;BME280;22981;43.080;25.550;2023-03-03T15:42:03;99594.06;;;6.18;82.20
37066;BME280;22981;43.080;25.550;2023-03-03T16:01:11;99603.53;;;6.06;82.74
37066;BME280;22981;43.080;25.550;2023-03-03T16:03:42;99608.84;;;6.06;82.94
37066;BME280;22981;43.080;25.550;2023-03-03T16:11:43;99607.97;;;6.10;82.99
37066;BME280;22981;43.080;25.550;2023-03-03T16:14:48;99618.09;;;6.10;83.00
37066;BME280;22981;43.080;25.550;2023-03-03T16:17:37;99624.98;;;6.05;82.97
37066;BME280;22981;43.080;25.550;2023-03-03T16:20:11;99620.34;;;6.02;82.94
37066;BME280;22981;43.080;25.550;2023-03-03T16:22:39;99628.68;;;5.99;83.01
37066;BME280;22981;43.080;25.550;2023-03-03T16:25:19;99623.88;;;5.99;83.10
37066;BME280;22981;43.080;25.550;2023-03-03T16:27:49;99627.36;;;5.99;83.22
37066;BME280;22981;43.080;25.550;2023-03-03T16:33:56;99630.92;;;6.07;83.27
37066;BME280;22981;43.080;25.550;2023-03-03T16:36:36;99629.74;;;6.09;83.16
37066;BME280;22981;43.080;25.550;2023-03-03T16:44:42;99641.45;;;6.15;83.02
37066;BME280;22981;43.080;25.550;2023-03-03T17:04:55;99657.19;;;6.06;83.48
37066;BME280;22981;43.080;25.550;2023-03-03T17:18:20;99666.95;;;6.09;83.86
37066;BME280;22981;43.080;25.550;2023-03-03T17:20:56;99669.10;;;6.10;83.87
37066;BME280;22981;43.080;25.550;2023-03-03T17:23:46;99673.45;;;6.07;83.82
37066;BME280;22981;43.080;25.550;2023-03-03T17:31:26;99669.00;;;6.03;84.11